Saturday, July 21, 2018, 3:28 PM EDT
Back to Local

KPSF, Pittsfield Municipal Airport

Location: Pittsfield, MA, United States Lat: 42.433
Local Time: 3:28 PM EDT (19:28 GMT) Lon: -73.283
Time Zone: US/Eastern Elev: 1194 ft

Show me the last for .
Show Decoded

2018-07-21 14:54 METAR KPSF 211854Z AUTO 11009G14KT 060V140 10SM CLR 25/10 A3009 RMK AO2 SLP168
                 T02500100 =
2018-07-21 13:54 METAR KPSF 211754Z AUTO 10007G15KT 050V140 10SM CLR 25/11 A3010 RMK AO2 SLP168
                 T02500106 10250 20167 58016 =
2018-07-21 12:54 METAR KPSF 211654Z AUTO 12012G17KT 10SM CLR 24/12 A3012 RMK AO2 SLP176 T02390122
                 =
2018-07-21 11:54 METAR KPSF 211554Z AUTO 12008G16KT 10SM FEW035 23/13 A3015 RMK AO2 SLP185
                 T02280128 =
2018-07-21 10:54 METAR KPSF 211454Z AUTO 10009G15KT 10SM FEW029 22/13 A3015 RMK AO2 SLP184
                 T02170128 50001 =
2018-07-21 09:54 METAR KPSF 211354Z AUTO 13005KT 10SM CLR 20/13 A3015 RMK AO2 SLP186 T02000133 =
2018-07-21 08:54 METAR KPSF 211254Z AUTO 09006KT 10SM SCT019 19/14 A3015 RMK AO2 SLP184 T01940139
                 =
2018-07-21 08:33 METAR KPSF 211233Z AUTO 05005KT 10SM SCT019 19/14 A3015 RMK AO2 T01940144 =
2018-07-21 07:54 METAR KPSF 211154Z AUTO 00000KT 10SM BKN017 17/13 A3014 RMK AO2 SLP184 T01670133
                 10167 20117 55000 =
2018-07-21 07:37 METAR KPSF 211137Z AUTO 00000KT 10SM BKN017 17/13 A3014 RMK AO2 T01670133 =
2018-07-21 06:54 METAR KPSF 211054Z AUTO 00000KT 10SM CLR 15/13 A3014 RMK AO2 SLP182 T01500128 =
2018-07-21 06:33 METAR KPSF 211033Z AUTO 00000KT 7SM CLR 14/12 A3014 RMK AO2 T01390122 =
2018-07-21 06:24 METAR KPSF 211024Z AUTO 00000KT 2SM BR CLR 13/12 A3014 RMK AO2 T01280117 =
2018-07-21 06:07 METAR KPSF 211007Z AUTO 00000KT 3SM BR CLR 12/11 A3014 RMK AO2 T01220106 =
2018-07-21 05:54 METAR KPSF 210954Z AUTO 00000KT 1 3/4SM BR FEW033 12/11 A3014 RMK AO2 VIS 3/4V5
                 SLP184 T01220106 =
2018-07-21 04:54 METAR KPSF 210854Z AUTO 00000KT 9SM CLR 12/11 A3014 RMK AO2 SLP184 T01220106
                 53002 =
2018-07-21 04:27 METAR KPSF 210827Z AUTO 00000KT 3SM BR CLR 13/11 A3014 RMK AO2 T01280111 =
2018-07-21 04:17 METAR KPSF 210817Z AUTO 00000KT 1 1/2SM BR CLR 13/11 A3014 RMK AO2 VIS 1/2V5
                 T01280106 =
2018-07-21 03:54 METAR KPSF 210754Z AUTO 00000KT 10SM CLR 13/12 A3014 RMK AO2 SLP181 T01330117 =
2018-07-21 02:54 METAR KPSF 210654Z AUTO 00000KT 10SM CLR 14/12 A3014 RMK AO2 SLP181 T01390117 =
2018-07-21 01:54 METAR KPSF 210554Z AUTO 00000KT 10SM CLR 15/13 A3014 RMK AO2 SLP181 T01500128
                 10233 20144 58002 =
2018-07-21 00:54 METAR KPSF 210454Z AUTO 00000KT 10SM CLR 16/14 A3014 RMK AO2 SLP181 T01610139
                 402830100 =
2018-07-20 23:54 METAR KPSF 210354Z AUTO 04004KT 10SM CLR 17/14 A3014 RMK AO2 SLP182 T01720139 =
2018-07-20 22:54 METAR KPSF 210254Z AUTO 17006KT 10SM CLR 21/13 A3014 RMK AO2 SLP180 T02060133
                 51006 =
2018-07-20 21:54 METAR KPSF 210154Z AUTO 17005KT 10SM CLR 22/14 A3014 RMK AO2 SLP179 T02170139 =
2018-07-20 20:54 METAR KPSF 210054Z AUTO 17008KT 10SM CLR 22/14 A3013 RMK AO2 SLP179 T02170139 =
2018-07-20 19:54 METAR KPSF 202354Z AUTO 00000KT 10SM CLR 23/14 A3012 RMK AO2 SLP178 T02330139
                 10283 20233 55000 =
2018-07-20 18:54 METAR KPSF 202254Z AUTO 15008KT 10SM CLR 26/13 A3011 RMK AO2 SLP175 T02560133 =
2018-07-20 17:54 METAR KPSF 202154Z AUTO 19007KT 10SM BKN060 27/14 A3012 RMK AO2 SLP178 T02720139
                 =
2018-07-20 16:54 METAR KPSF 202054Z AUTO 15005KT 10SM OVC060 27/13 A3012 RMK AO2 SLP179 T02720133
                 56012 =
2018-07-20 15:54 METAR KPSF 201954Z AUTO 18008KT 10SM FEW060 28/12 A3013 RMK AO2 SLP179 T02830122
                 =

Support USWX by starting your Amazon purchase here.